Time;durP1;ratioP1;P1;durP2;ratioP2;P2;SDS_P1;SDS_P2;PMS_P1;PMS_P2;Temp;Humidity;BMP_temperature;BMP_pressure;BME280_temperature;BME280_humidity;BME280_pressure;Samples;Min_cycle;Max_cycle;Signal;HPM_P1;HPM_P2
2023/05/07 00:01:45;;;;;;;7.70;6.07;;;;;;;20.01;52.22;100739.13;5083586;28;20048;-85
2023/05/07 00:04:39;;;;;;;11.27;6.72;;;;;;;19.86;52.32;100742.91;5073967;28;20059;-87
2023/05/07 00:07:29;;;;;;;16.30;6.97;;;;;;;19.88;52.57;100742.53;5070377;28;20044;-85
2023/05/07 00:10:23;;;;;;;8.23;6.10;;;;;;;19.66;53.17;100738.72;5077748;28;20419;-84
2023/05/07 00:13:18;;;;;;;9.68;6.40;;;;;;;19.59;53.71;100728.41;5067590;28;20048;-86
2023/05/07 00:16:10;;;;;;;12.45;7.05;;;;;;;19.54;53.76;100731.50;5088513;28;20051;-84
2023/05/07 00:19:05;;;;;;;10.30;7.18;;;;;;;19.55;53.96;100724.84;5066665;28;20052;-84
2023/05/07 00:21:57;;;;;;;12.30;7.95;;;;;;;19.38;54.97;100733.63;5064541;28;20036;-85
2023/05/07 00:24:52;;;;;;;14.75;7.88;;;;;;;19.35;55.93;100734.34;5075477;28;20052;-85
2023/05/07 00:27:44;;;;;;;9.07;7.22;;;;;;;19.27;56.54;100737.41;5082664;28;20044;-85
2023/05/07 00:30:36;;;;;;;13.45;6.28;;;;;;;19.34;57.01;100743.81;5087503;28;20051;-85
2023/05/07 00:33:31;;;;;;;13.60;7.65;;;;;;;19.30;56.40;100745.72;5087249;28;20052;-84
2023/05/07 00:36:25;;;;;;;14.95;8.68;;;;;;;19.23;56.66;100738.16;5086735;28;20047;-85
2023/05/07 00:39:20;;;;;;;10.95;8.23;;;;;;;19.18;57.07;100737.69;5088191;28;20047;-84
2023/05/07 00:42:15;;;;;;;9.20;7.85;;;;;;;19.21;57.06;100740.50;5080762;28;20403;-85
2023/05/07 00:45:10;;;;;;;14.20;9.13;;;;;;;19.20;56.97;100738.88;5080978;28;20044;-85
2023/05/07 00:48:05;;;;;;;16.15;8.52;;;;;;;19.36;56.35;100735.97;5083594;28;20052;-84
2023/05/07 00:50:59;;;;;;;10.65;8.32;;;;;;;19.32;56.48;100734.31;5086186;28;20506;-84
2023/05/07 00:53:51;;;;;;;9.90;6.97;;;;;;;19.22;57.20;100727.50;5087173;28;20051;-85
2023/05/07 00:56:46;;;;;;;10.77;8.35;;;;;;;19.22;56.69;100733.00;5087349;28;20044;-84
2023/05/07 00:59:40;;;;;;;12.95;8.43;;;;;;;19.18;55.94;100730.22;5080242;28;20052;-84
2023/05/07 01:02:35;;;;;;;12.07;8.07;;;;;;;19.10;56.92;100728.50;5081438;28;20039;-85
2023/05/07 01:05:28;;;;;;;20.35;8.57;;;;;;;19.06;57.02;100729.63;5086125;28;20047;-85
2023/05/07 01:08:24;;;;;;;9.63;8.13;;;;;;;19.13;56.43;100738.00;5087368;28;20637;-85
2023/05/07 01:11:20;;;;;;;8.00;7.18;;;;;;;19.05;56.22;100730.78;5084518;28;20043;-85
2023/05/07 01:14:10;;;;;;;10.95;7.38;;;;;;;18.84;56.34;100725.00;5085354;28;20055;-85
2023/05/07 01:17:02;;;;;;;13.95;7.25;;;;;;;18.82;56.19;100727.31;5071002;28;20056;-85
2023/05/07 01:19:53;;;;;;;14.05;7.25;;;;;;;18.82;56.03;100719.84;5086560;28;20403;-84
2023/05/07 01:22:46;;;;;;;9.82;7.57;;;;;;;19.08;55.41;100724.56;5081372;28;20047;-85
2023/05/07 01:25:41;;;;;;;8.48;6.82;;;;;;;19.13;54.55;100721.47;5085666;28;20047;-85
2023/05/07 01:28:31;;;;;;;;;;;;;;;18.91;54.94;100714.06;5083498;28;20059;-85
2023/05/07 01:31:25;;;;;;;8.40;6.57;;;;;;;18.83;55.04;100713.16;5083524;28;19913;-84
2023/05/07 01:34:21;;;;;;;15.65;6.75;;;;;;;18.90;54.82;100709.69;5082434;28;20055;-84
2023/05/07 01:37:13;;;;;;;7.38;6.47;;;;;;;19.04;53.61;100713.47;5079764;28;20229;-84
2023/05/07 01:40:09;;;;;;;10.80;6.38;;;;;;;19.02;53.31;100710.28;5079567;28;20059;-84
2023/05/07 01:43:04;;;;;;;11.13;6.43;;;;;;;19.05;53.30;100722.53;5079028;28;20043;-85
2023/05/07 01:45:59;;;;;;;7.85;6.00;;;;;;;18.91;53.64;100719.56;5085130;28;20059;-85
2023/05/07 01:48:49;;;;;;;9.50;6.10;;;;;;;18.80;54.44;100720.19;5080978;28;20043;-84
2023/05/07 01:51:44;;;;;;;7.25;5.75;;;;;;;18.92;54.69;100723.91;5078168;28;20048;-84
2023/05/07 01:54:34;;;;;;;;;;;;;;;18.96;55.14;100724.75;5082497;28;20047;-84
2023/05/07 01:57:26;;;;;;;12.15;6.88;;;;;;;18.80;55.75;100725.72;5085152;28;20371;-84
2023/05/07 02:00:21;;;;;;;10.75;8.40;;;;;;;18.85;55.99;100726.56;5084835;28;20047;-83
2023/05/07 02:03:15;;;;;;;13.13;7.40;;;;;;;18.71;56.55;100721.63;5079454;28;20059;-84
2023/05/07 02:06:14;;;;;;;12.27;8.02;;;;;;;18.76;56.56;100724.88;5085158;28;20048;-84
2023/05/07 02:09:06;;;;;;;12.02;8.80;;;;;;;18.86;56.58;100714.38;5085657;28;20127;-84
2023/05/07 02:12:03;;;;;;;10.65;8.70;;;;;;;18.71;57.46;100718.88;5079873;28;20048;-85
2023/05/07 02:14:58;;;;;;;10.40;9.10;;;;;;;18.61;57.89;100717.53;5081899;28;20075;-84
2023/05/07 02:18:09;;;;;;;12.20;9.50;;;;;;;18.77;57.73;100709.94;5081399;28;20047;-84
2023/05/07 02:21:01;;;;;;;11.90;10.02;;;;;;;18.74;58.63;100718.91;5084115;28;20046;-85
2023/05/07 02:23:56;;;;;;;12.60;9.07;;;;;;;18.74;59.01;100715.41;5084653;28;20040;-84
2023/05/07 02:26:45;;;;;;;13.20;10.23;;;;;;;18.70;59.69;100720.84;5085006;28;20052;-84
2023/05/07 02:29:40;;;;;;;15.82;10.05;;;;;;;18.63;60.44;100717.97;5077648;28;20048;-83
2023/05/07 02:32:34;;;;;;;14.00;11.18;;;;;;;18.53;61.07;100710.31;5081278;28;20040;-83
2023/05/07 02:35:27;;;;;;;15.20;9.98;;;;;;;18.61;61.17;100709.28;5081455;28;20044;-83
2023/05/07 02:38:21;;;;;;;10.73;9.63;;;;;;;18.62;60.45;100713.63;5062654;28;20048;-83
2023/05/07 02:41:14;;;;;;;12.00;10.07;;;;;;;18.45;60.41;100714.09;5073536;28;20411;-83
2023/05/07 02:44:08;;;;;;;13.07;10.27;;;;;;;18.52;59.99;100714.22;5084899;28;20043;-83
2023/05/07 02:47:01;;;;;;;;;;;;;;;18.42;60.48;100714.03;5084063;28;20036;-83
2023/05/07 02:49:55;;;;;;;12.70;9.77;;;;;;;18.52;60.48;100713.44;5077957;28;19912;-82
2023/05/07 02:52:50;;;;;;;10.75;9.07;;;;;;;18.53;60.41;100715.81;5059946;28;20041;-83
2023/05/07 02:55:44;;;;;;;11.40;9.45;;;;;;;18.74;59.98;100721.66;5060027;28;20056;-83
2023/05/07 02:58:39;;;;;;;13.82;9.73;;;;;;;18.89;60.03;100719.16;5062128;28;20044;-82
2023/05/07 03:01:31;;;;;;;;;;;;;;;18.86;59.65;100723.44;5059954;28;20052;-83
2023/05/07 03:04:32;;;;;;;12.68;9.38;;;;;;;18.82;59.53;100719.84;5062875;28;19912;-83
2023/05/07 03:07:26;;;;;;;11.90;10.02;;;;;;;18.74;60.16;100726.41;5061377;28;20518;-84
2023/05/07 03:10:21;;;;;;;11.13;9.15;;;;;;;18.52;60.06;100718.94;5060061;28;20048;-83
2023/05/07 03:13:16;;;;;;;12.55;9.75;;;;;;;18.33;60.88;100728.88;5061685;28;20055;-83
2023/05/07 03:16:08;;;;;;;11.07;9.88;;;;;;;18.68;59.75;100716.88;5064961;28;20056;-83
2023/05/07 03:19:02;;;;;;;14.30;10.32;;;;;;;18.77;59.33;100714.66;5068128;28;20044;-83
2023/05/07 03:21:57;;;;;;;16.95;11.75;;;;;;;18.63;59.65;100717.97;5065720;28;20029;-83
2023/05/07 03:24:52;;;;;;;15.90;11.07;;;;;;;18.76;59.82;100718.56;5068468;28;20045;-83
2023/05/07 03:27:44;;;;;;;15.05;10.23;;;;;;;18.68;59.70;100717.66;5067041;28;20037;-83
2023/05/07 03:30:36;;;;;;;13.43;10.65;;;;;;;18.36;60.94;100713.56;5062119;28;20059;-84
2023/05/07 03:33:31;;;;;;;14.90;10.13;;;;;;;18.45;60.66;100711.34;5062863;28;20060;-84
2023/05/07 03:36:26;;;;;;;16.25;10.55;;;;;;;18.36;60.84;100705.28;5069302;28;20419;-84
2023/05/07 03:39:21;;;;;;;15.40;11.55;;;;;;;17.94;63.07;100719.88;5068262;28;20044;-84
2023/05/07 03:42:13;;;;;;;14.18;10.43;;;;;;;17.99;62.87;100716.03;5060859;28;20049;-83
2023/05/07 03:45:08;;;;;;;13.68;11.57;;;;;;;17.94;63.11;100722.63;5067357;28;20052;-83
2023/05/07 03:48:01;;;;;;;13.68;10.85;;;;;;;18.18;62.30;100721.53;5066894;28;20515;-83
2023/05/07 03:50:56;;;;;;;14.13;11.15;;;;;;;18.08;62.83;100713.06;5067340;28;20048;-83
2023/05/07 03:53:48;;;;;;;16.63;11.93;;;;;;;17.89;62.74;100722.13;5066527;28;20044;-83
2023/05/07 03:56:42;;;;;;;15.45;12.18;;;;;;;17.79;63.12;100720.78;5062066;28;20400;-83
2023/05/07 03:59:34;;;;;;;18.90;13.00;;;;;;;17.98;63.23;100724.69;5061301;28;20048;-83
2023/05/07 04:02:30;;;;;;;15.50;11.93;;;;;;;18.06;62.59;100724.44;5063093;28;20044;-83
2023/05/07 04:05:24;;;;;;;15.45;12.48;;;;;;;17.86;62.93;100734.69;5066720;28;20055;-82
2023/05/07 04:08:21;;;;;;;18.42;13.70;;;;;;;17.61;64.72;100729.84;5063896;28;20404;-84
2023/05/07 04:11:15;;;;;;;18.42;12.13;;;;;;;17.79;64.62;100726.28;5060897;28;20037;-84
2023/05/07 04:14:07;;;;;;;14.30;12.15;;;;;;;18.11;63.48;100726.09;5064189;28;20045;-83
2023/05/07 04:17:05;;;;;;;15.50;11.75;;;;;;;17.97;63.32;100720.31;5062899;28;20044;-82
2023/05/07 04:20:00;;;;;;;17.25;11.73;;;;;;;18.00;63.98;100730.59;5065049;28;20044;-82
2023/05/07 04:22:55;;;;;;;10.43;9.18;;;;;;;18.18;63.61;100731.72;5061189;28;20041;-82
2023/05/07 04:25:49;;;;;;;11.80;10.32;;;;;;;18.20;62.98;100723.88;5066314;28;20040;-82
2023/05/07 04:28:57;;;;;;;18.98;11.70;;;;;;;18.27;62.36;100724.81;5062179;28;20044;-84
2023/05/07 04:31:55;;;;;;;14.40;11.88;;;;;;;18.29;62.59;100732.69;5064250;28;20044;-84
2023/05/07 04:34:54;;;;;;;13.93;10.25;;;;;;;18.29;62.49;100738.19;5068712;28;20047;-84
2023/05/07 04:37:44;;;;;;;15.25;10.95;;;;;;;18.29;62.49;100744.50;5071536;28;20048;-84
2023/05/07 04:40:39;;;;;;;16.67;10.90;;;;;;;18.46;62.26;100736.94;5065348;28;20044;-84
2023/05/07 04:43:32;;;;;;;14.98;11.27;;;;;;;18.14;63.41;100747.38;5081530;28;20033;-84
2023/05/07 04:46:26;;;;;;;17.30;11.73;;;;;;;18.32;63.08;100743.00;5067569;28;20040;-84
2023/05/07 04:49:19;;;;;;;16.25;11.45;;;;;;;18.35;63.26;100743.03;5067886;28;20416;-84
2023/05/07 04:52:12;;;;;;;13.38;11.13;;;;;;;18.33;63.18;100744.59;5065391;28;20040;-82
2023/05/07 04:55:05;;;;;;;14.27;10.43;;;;;;;18.36;63.38;100755.66;5075803;28;20424;-81
2023/05/07 04:58:02;;;;;;;14.30;11.63;;;;;;;18.43;63.12;100754.19;5078856;28;20048;-82
2023/05/07 05:00:56;;;;;;;14.02;10.82;;;;;;;18.47;63.21;100755.84;5069396;28;20538;-84
2023/05/07 05:03:51;;;;;;;14.90;11.20;;;;;;;18.51;63.21;100753.94;5080368;28;20037;-87
2023/05/07 05:06:43;;;;;;;14.38;11.15;;;;;;;18.39;64.04;100756.88;5086808;28;20044;-85
2023/05/07 05:09:38;;;;;;;12.75;10.73;;;;;;;18.55;63.57;100765.03;5079980;28;20048;-85
2023/05/07 05:12:31;;;;;;;;;;;;;;;18.57;63.80;100777.28;5082175;28;20036;-85
2023/05/07 05:15:26;;;;;;;14.73;11.88;;;;;;;18.44;63.76;100781.34;5086073;28;19917;-85
2023/05/07 05:18:21;;;;;;;12.00;8.98;;;;;;;18.44;64.20;100786.84;5087366;28;20041;-86
2023/05/07 05:21:15;;;;;;;15.18;11.18;;;;;;;18.45;64.75;100791.19;5085156;28;20047;-86
2023/05/07 05:24:10;;;;;;;17.42;13.13;;;;;;;18.32;65.69;100798.06;5084055;28;20033;-84
2023/05/07 05:27:02;;;;;;;15.88;13.00;;;;;;;18.31;65.72;100797.25;5083615;28;20051;-86
2023/05/07 05:29:54;;;;;;;15.50;13.27;;;;;;;18.39;65.44;100792.66;5079678;28;20055;-85
2023/05/07 05:32:49;;;;;;;21.35;13.90;;;;;;;18.55;65.07;100789.81;5079880;28;20036;-86
2023/05/07 05:35:42;;;;;;;17.50;13.13;;;;;;;18.53;65.51;100787.44;5085662;28;20047;-83
2023/05/07 05:38:38;;;;;;;33.45;14.98;;;;;;;18.62;65.33;100784.44;5086025;28;20055;-86
2023/05/07 05:41:33;;;;;;;19.30;14.00;;;;;;;18.65;65.19;100784.50;5083457;28;20044;-87
2023/05/07 05:44:28;;;;;;;20.83;14.07;;;;;;;18.53;65.96;100781.13;5085062;28;20411;-87
2023/05/07 05:47:23;;;;;;;17.63;13.93;;;;;;;18.57;66.07;100777.28;5085186;28;20039;-86
2023/05/07 05:50:19;;;;;;;19.88;14.15;;;;;;;18.67;66.22;100776.69;5084322;28;20059;-86
2023/05/07 05:53:11;;;;;;;21.55;14.52;;;;;;;18.77;66.04;100770.53;5078254;28;20039;-86
2023/05/07 05:56:01;;;;;;;21.38;15.35;;;;;;;18.83;66.15;100784.00;5084953;28;20056;-87
2023/05/07 05:58:55;;;;;;;21.63;13.68;;;;;;;18.93;65.46;100778.66;5085657;28;20131;-86
2023/05/07 06:01:49;;;;;;;22.25;15.55;;;;;;;19.02;65.71;100786.66;5078154;28;20040;-86
2023/05/07 06:04:41;;;;;;;23.40;14.60;;;;;;;19.15;65.33;100790.78;5085225;28;20094;-85
2023/05/07 06:07:35;;;;;;;18.58;13.02;;;;;;;19.25;64.34;100786.63;5086136;28;20059;-84
2023/05/07 06:10:29;;;;;;;18.38;14.30;;;;;;;19.33;64.07;100788.31;5083948;28;20048;-87
2023/05/07 06:13:24;;;;;;;15.95;13.93;;;;;;;19.47;64.46;100791.28;5078617;28;20059;-87
2023/05/07 06:16:18;;;;;;;24.13;14.20;;;;;;;19.43;64.49;100796.75;5083792;28;20071;-75
2023/05/07 06:19:11;;;;;;;18.15;11.70;;;;;;;20.21;62.11;100797.75;5070863;28;20036;-75
2023/05/07 06:22:06;;;;;;;24.23;15.30;;;;;;;20.60;61.27;100800.13;5069141;28;20032;-75
2023/05/07 06:25:01;;;;;;;22.88;13.55;;;;;;;20.73;60.46;100799.44;5071384;28;20040;-75
2023/05/07 06:27:53;;;;;;;20.48;13.85;;;;;;;20.73;59.94;100806.94;5071580;28;20044;-75
2023/05/07 06:30:47;;;;;;;16.85;14.00;;;;;;;19.73;63.30;100793.22;5067459;28;20041;-75
2023/05/07 06:33:42;;;;;;;16.70;13.05;;;;;;;19.80;61.27;100799.63;5059820;28;20040;-75
2023/05/07 06:36:37;;;;;;;21.33;13.90;;;;;;;20.11;60.54;100806.72;5052878;28;20041;-75
2023/05/07 06:39:41;;;;;;;19.42;13.45;;;;;;;20.83;57.97;100801.50;5073366;28;20044;-75
2023/05/07 06:42:35;;;;;;;17.63;14.10;;;;;;;20.59;59.37;100812.34;5060618;28;20037;-75
2023/05/07 06:45:44;;;;;;;18.00;14.68;;;;;;;20.99;58.09;100808.72;5081965;28;20059;-75
2023/05/07 06:48:38;;;;;;;19.00;15.40;;;;;;;20.03;62.07;100808.56;5057569;28;20051;-75
2023/05/07 06:51:33;;;;;;;20.95;15.90;;;;;;;20.18;62.21;100817.81;5055306;28;20048;-75
2023/05/07 06:54:26;;;;;;;;;;;;;;;20.14;63.42;100799.63;5060045;28;20511;-75
2023/05/07 06:57:20;;;;;;;20.27;16.55;;;;;;;20.67;62.24;100812.00;5056963;28;19912;-75
2023/05/07 07:00:15;;;;;;;21.80;17.67;;;;;;;20.80;62.24;100807.81;5061189;28;20507;-75
2023/05/07 07:03:14;;;;;;;23.88;17.80;;;;;;;20.71;62.30;100814.84;5054831;28;20043;-75
2023/05/07 07:06:10;;;;;;;20.98;17.52;;;;;;;20.89;62.38;100811.03;5055185;28;20037;-75
2023/05/07 07:09:04;;;;;;;25.02;18.15;;;;;;;21.01;61.51;100803.63;5057283;28;20033;-75
2023/05/07 07:11:59;;;;;;;24.23;18.13;;;;;;;22.10;57.96;100807.03;5070443;28;20442;-77
2023/05/07 07:14:52;;;;;;;20.35;16.45;;;;;;;22.07;59.15;100809.78;5077223;28;20435;-75
2023/05/07 07:17:46;;;;;;;25.77;15.68;;;;;;;22.04;58.77;100816.13;5069788;28;20044;-76
2023/05/07 07:20:41;;;;;;;20.17;14.93;;;;;;;21.48;57.66;100800.81;5069469;28;20040;-75
2023/05/07 07:23:35;;;;;;;21.23;13.98;;;;;;;22.63;54.37;100800.81;5056371;28;20072;-75
2023/05/07 07:26:31;;;;;;;22.05;15.77;;;;;;;21.95;57.74;100799.84;5069211;28;20395;-75
2023/05/07 07:29:25;;;;;;;22.17;15.70;;;;;;;21.49;59.17;100805.16;5075588;28;20600;-76
2023/05/07 07:32:19;;;;;;;24.13;14.82;;;;;;;23.16;54.18;100802.81;5075606;28;20032;-76
2023/05/07 07:35:14;;;;;;;17.30;13.73;;;;;;;23.67;52.83;100800.31;5070626;28;20488;-76
2023/05/07 07:38:09;;;;;;;24.85;13.35;;;;;;;24.23;50.48;100801.28;5080413;28;20568;-81
2023/05/07 07:41:04;;;;;;;17.30;12.70;;;;;;;24.88;49.10;100805.25;5085135;28;20051;-80
2023/05/07 07:43:56;;;;;;;22.98;15.18;;;;;;;24.14;51.85;100800.91;5089706;28;20036;-80
2023/05/07 07:46:51;;;;;;;15.75;12.63;;;;;;;24.60;50.19;100803.44;5084880;28;20044;-80
2023/05/07 07:49:43;;;;;;;17.50;13.77;;;;;;;24.78;50.18;100804.09;5085254;28;20035;-81
2023/05/07 07:52:39;;;;;;;14.98;13.23;;;;;;;24.75;50.57;100809.66;5086621;28;20044;-80
2023/05/07 07:55:34;;;;;;;18.65;13.18;;;;;;;25.21;49.23;100812.09;5086066;28;20055;-80
2023/05/07 07:58:28;;;;;;;18.50;14.38;;;;;;;24.25;51.44;100807.22;5083592;28;20051;-80
2023/05/07 08:01:23;;;;;;;15.27;12.80;;;;;;;23.94;53.00;100808.16;5087360;28;20037;-80
2023/05/07 08:04:18;;;;;;;25.30;12.90;;;;;;;25.12;49.22;100818.13;5079878;28;20055;-80
2023/05/07 08:07:14;;;;;;;16.77;13.85;;;;;;;23.99;51.84;100814.09;5081776;28;20056;-80
2023/05/07 08:10:08;;;;;;;15.00;12.93;;;;;;;22.74;55.66;100818.28;5077098;28;20044;-80
2023/05/07 08:13:03;;;;;;;19.23;14.77;;;;;;;22.88;55.15;100812.72;5079597;28;20088;-80
2023/05/07 08:15:58;;;;;;;29.80;14.48;;;;;;;22.85;55.93;100821.06;5085486;28;20040;-80
2023/05/07 08:18:51;;;;;;;21.58;13.27;;;;;;;21.76;57.63;100816.75;5082962;28;20043;-80
2023/05/07 08:21:45;;;;;;;16.67;13.73;;;;;;;21.39;58.71;100819.72;5071477;28;20049;-80
2023/05/07 08:24:40;;;;;;;17.52;14.73;;;;;;;21.49;58.46;100818.97;5092088;28;20052;-82
2023/05/07 08:27:35;;;;;;;20.90;15.45;;;;;;;21.94;57.31;100825.97;5078088;28;20040;-80
2023/05/07 08:30:29;;;;;;;16.85;14.27;;;;;;;22.50;54.35;100824.56;5071265;28;20322;-80
2023/05/07 08:33:24;;;;;;;18.85;14.45;;;;;;;23.91;51.09;100833.97;5066104;28;20037;-80
2023/05/07 08:36:18;;;;;;;18.08;13.05;;;;;;;25.89;46.46;100838.03;5074547;28;20040;-81
2023/05/07 08:39:13;;;;;;;18.58;12.98;;;;;;;25.47;45.81;100828.13;5087341;28;20102;-80
2023/05/07 08:42:03;;;;;;;14.75;13.07;;;;;;;24.38;47.87;100838.91;5078449;28;20040;-82
2023/05/07 08:44:59;;;;;;;19.60;13.40;;;;;;;24.02;47.55;100824.41;5083700;28;20036;-79
2023/05/07 08:47:57;;;;;;;22.50;12.30;;;;;;;24.91;44.63;100832.22;5072606;28;20048;-79
2023/05/07 08:50:52;;;;;;;15.40;12.55;;;;;;;24.47;45.91;100824.59;5076871;28;20409;-81
2023/05/07 08:53:48;;;;;;;17.50;13.65;;;;;;;24.09;45.96;100821.56;5073730;28;20032;-80
2023/05/07 08:56:44;;;;;;;14.43;12.25;;;;;;;24.08;46.69;100821.97;5076211;28;20052;-80
2023/05/07 08:59:36;;;;;;;17.92;12.52;;;;;;;24.58;45.65;100826.06;5072505;28;20507;-81
2023/05/07 09:02:31;;;;;;;16.83;11.30;;;;;;;23.87;46.64;100829.22;5075397;28;20032;-81
2023/05/07 09:05:26;;;;;;;14.68;12.52;;;;;;;22.47;50.16;100817.81;5077876;28;20036;-80
2023/05/07 09:08:20;;;;;;;17.98;13.27;;;;;;;23.65;47.61;100816.59;5077167;28;20641;-80
2023/05/07 09:11:15;;;;;;;18.30;12.90;;;;;;;24.08;46.43;100821.97;5073456;28;20162;-82
2023/05/07 09:14:09;;;;;;;27.60;15.20;;;;;;;23.21;48.41;100824.63;5073868;28;20036;-81
2023/05/07 09:17:05;;;;;;;18.42;13.02;;;;;;;24.53;45.98;100823.72;5081876;28;20424;-82
2023/05/07 09:19:57;;;;;;;31.85;13.50;;;;;;;24.46;46.14;100821.00;5087063;28;20048;-82
2023/05/07 09:22:53;;;;;;;15.45;11.90;;;;;;;24.89;45.22;100823.53;5084558;28;20059;-81
2023/05/07 09:25:46;;;;;;;16.58;13.20;;;;;;;25.24;43.72;100816.84;5082592;28;20036;-83
2023/05/07 09:28:46;;;;;;;16.42;12.13;;;;;;;25.60;43.67;100818.06;5086759;28;20051;-82
2023/05/07 09:31:41;;;;;;;19.00;12.98;;;;;;;25.57;44.06;100820.88;5083851;28;20052;-84
2023/05/07 09:34:37;;;;;;;17.80;14.57;;;;;;;24.24;46.92;100825.09;5091660;28;20043;-83
2023/05/07 09:37:27;;;;;;;19.50;14.32;;;;;;;24.93;46.01;100818.72;5067851;28;20056;-83
2023/05/07 09:40:28;;;;;;;48.72;15.82;;;;;;;24.56;46.56;100813.78;5084245;28;20419;-84
2023/05/07 09:43:23;;;;;;;18.20;13.70;;;;;;;24.16;48.24;100815.19;5086165;28;20043;-86
2023/05/07 09:46:20;;;;;;;18.63;13.82;;;;;;;24.21;48.19;100818.38;5086885;28;20496;-85
2023/05/07 09:49:22;;;;;;;17.58;13.88;;;;;;;25.31;45.36;100819.53;5089588;28;20052;-84
2023/05/07 09:52:18;;;;;;;19.55;13.90;;;;;;;24.42;47.80;100817.47;5087331;28;20051;-85
2023/05/07 09:55:12;;;;;;;27.33;15.27;;;;;;;27.04;42.24;100822.84;5091156;28;20048;-84
2023/05/07 09:58:09;;;;;;;15.82;12.13;;;;;;;30.82;33.63;100813.88;5090628;28;20056;-84
2023/05/07 10:01:04;;;;;;;17.05;13.95;;;;;;;34.08;27.90;100832.72;5084409;28;20741;-83
2023/05/07 10:03:57;;;;;;;17.48;11.60;;;;;;;35.22;26.23;100830.78;5078490;28;20039;-85
2023/05/07 10:06:50;;;;;;;13.55;11.00;;;;;;;35.53;25.10;100828.34;5073084;28;20495;-85
2023/05/07 10:09:46;;;;;;;13.68;11.40;;;;;;;37.82;22.11;100829.72;5076754;28;20503;-85
2023/05/07 10:12:48;;;;;;;30.30;11.30;;;;;;;32.65;29.11;100817.59;5081838;28;20039;-85
2023/05/07 10:15:53;;;;;;;18.45;10.77;;;;;;;29.64;34.58;100815.84;5084354;28;20055;-85
2023/05/07 10:18:48;;;;;;;21.23;12.32;;;;;;;30.13;33.97;100806.00;5081968;28;20043;-83
2023/05/07 10:22:02;;;;;;;16.45;12.93;;;;;;;33.05;29.34;100809.06;5078890;28;20044;-82
2023/05/07 10:24:58;;;;;;;14.15;11.23;;;;;;;34.71;27.00;100805.50;5079998;28;20044;-82
2023/05/07 10:27:56;;;;;;;24.95;11.77;;;;;;;36.37;24.14;100807.97;5075735;28;20055;-81
2023/05/07 10:31:31;;;;;;;15.02;11.07;;;;;;;37.98;22.39;100811.28;5078544;28;20462;-82
2023/05/07 10:34:25;;;;;;;15.02;11.30;;;;;;;38.69;21.22;100818.03;5057971;28;20047;-82
2023/05/07 10:37:18;;;;;;;13.90;10.35;;;;;;;39.62;20.50;100814.03;5081025;28;20519;-81
2023/05/07 10:40:11;;;;;;;14.93;10.95;;;;;;;42.43;17.29;100816.94;5078743;28;20051;-82
2023/05/07 10:43:05;;;;;;;22.77;10.38;;;;;;;41.70;17.67;100804.56;5076730;28;20467;-82
2023/05/07 10:46:23;;;;;;;12.23;9.70;;;;;;;38.86;20.71;100811.16;5070934;28;20048;-81
2023/05/07 10:49:22;;;;;;;11.77;8.85;;;;;;;42.05;17.28;100806.63;5081638;28;20043;-82
2023/05/07 10:52:23;;;;;;;11.20;8.90;;;;;;;37.81;21.75;100808.28;5081059;28;20071;-82
2023/05/07 10:55:39;;;;;;;10.75;9.32;;;;;;;36.99;22.93;100801.13;5077452;28;20047;-81
2023/05/07 10:58:53;;;;;;;14.02;9.27;;;;;;;38.35;21.04;100797.13;5075990;28;20523;-84
2023/05/07 11:01:57;;;;;;;10.65;8.57;;;;;;;34.04;26.10;100788.97;5086274;28;20044;-85
2023/05/07 11:05:31;;;;;;;11.15;9.25;;;;;;;31.67;30.12;100769.53;5083771;28;20048;-85
2023/05/07 11:08:58;;;;;;;13.38;10.02;;;;;;;35.24;25.13;100768.88;5077549;28;20044;-82
2023/05/07 11:12:04;;;;;;;13.32;9.65;;;;;;;35.37;25.13;100772.22;5078519;28;20534;-80
2023/05/07 11:15:09;;;;;;;45.17;11.15;;;;;;;34.39;27.01;100778.03;5082418;28;20055;-81
2023/05/07 11:18:03;;;;;;;11.27;9.73;;;;;;;36.73;22.73;100772.69;5078679;28;20044;-81
2023/05/07 11:21:04;;;;;;;11.90;9.65;;;;;;;39.41;19.59;100781.41;5080256;28;20126;-80
2023/05/07 11:24:03;;;;;;;13.90;8.07;;;;;;;41.77;17.53;100770.47;5076110;28;20408;-83
2023/05/07 11:27:06;;;;;;;12.48;8.40;;;;;;;43.53;15.71;100776.06;5080250;28;20550;-80
2023/05/07 11:30:00;;;;;;;9.73;7.88;;;;;;;43.61;15.35;100773.34;5078713;28;20063;-82
2023/05/07 11:32:53;;;;;;;16.52;6.65;;;;;;;41.03;17.55;100776.34;5070650;28;20052;-80
2023/05/07 11:35:46;;;;;;;10.88;8.40;;;;;;;41.67;16.50;100765.59;5084142;28;20051;-80
2023/05/07 11:38:44;;;;;;;10.55;7.65;;;;;;;42.55;16.19;100766.13;5063771;28;20044;-81
2023/05/07 11:41:42;;;;;;;9.27;7.32;;;;;;;42.70;16.53;100775.06;5067381;28;20052;-81
2023/05/07 11:44:49;;;;;;;16.52;7.43;;;;;;;43.08;15.61;100773.81;5065400;28;20043;-81
2023/05/07 11:47:46;;;;;;;10.32;6.25;;;;;;;42.68;16.23;100777.69;5072201;28;20518;-81
2023/05/07 11:50:50;;;;;;;7.88;7.07;;;;;;;42.82;15.79;100767.91;5072342;28;20047;-81
2023/05/07 11:53:45;;;;;;;9.80;7.43;;;;;;;43.41;15.36;100760.34;5078803;28;20048;-82
2023/05/07 11:56:40;;;;;;;9.85;6.20;;;;;;;40.08;17.47;100750.91;5063279;28;20040;-82
2023/05/07 11:59:32;;;;;;;6.05;5.45;;;;;;;40.36;17.65;100755.81;5066994;28;20673;-82
2023/05/07 12:02:24;;;;;;;9.75;6.57;;;;;;;36.89;21.76;100737.31;5063658;28;20067;-81
2023/05/07 12:05:19;;;;;;;9.93;6.60;;;;;;;38.60;19.83;100750.03;5062459;28;20052;-82
2023/05/07 12:08:13;;;;;;;7.75;6.55;;;;;;;40.01;18.23;100747.81;5069415;28;20535;-82
2023/05/07 12:11:11;;;;;;;7.78;6.97;;;;;;;39.10;18.61;100751.03;5083399;28;20051;-82
2023/05/07 12:14:05;;;;;;;7.00;6.18;;;;;;;39.29;18.23;100751.31;5084993;28;20044;-82
2023/05/07 12:17:01;;;;;;;11.00;5.25;;;;;;;39.45;18.19;100749.84;5088467;28;20047;-83
2023/05/07 12:19:53;;;;;;;9.75;5.30;;;;;;;36.73;21.43;100744.34;5084228;28;20040;-82
2023/05/07 12:22:45;;;;;;;8.48;6.32;;;;;;;38.37;19.38;100741.34;5072441;28;20047;-83
2023/05/07 12:25:41;;;;;;;8.38;5.50;;;;;;;36.28;21.54;100740.09;5092605;28;20048;-86
2023/05/07 12:28:43;;;;;;;14.77;6.10;;;;;;;33.75;24.74;100747.19;5089182;28;20047;-86
2023/05/07 12:31:38;;;;;;;7.10;5.60;;;;;;;33.26;26.11;100736.91;5083767;28;20517;-84
2023/05/07 12:34:33;;;;;;;7.70;5.97;;;;;;;34.49;24.25;100742.84;5075164;28;20044;-84
2023/05/07 12:37:31;;;;;;;6.90;5.90;;;;;;;35.11;23.13;100737.22;5073358;28;20048;-82
2023/05/07 12:40:21;;;;;;;9.68;6.15;;;;;;;35.57;22.90;100732.72;5079107;28;20250;-83
2023/05/07 12:43:19;;;;;;;9.38;6.25;;;;;;;36.26;22.09;100737.00;5078170;28;20546;-83
2023/05/07 12:46:14;;;;;;;7.47;5.45;;;;;;;36.69;21.71;100731.66;5080614;28;20254;-84
2023/05/07 12:49:09;;;;;;;10.38;6.18;;;;;;;36.95;20.84;100726.06;5078429;28;20044;-83
2023/05/07 12:52:03;;;;;;;13.32;6.10;;;;;;;32.78;25.88;100720.91;5072707;28;20039;-83
2023/05/07 12:54:55;;;;;;;7.82;6.07;;;;;;;32.67;25.99;100718.53;5076572;28;20044;-83
2023/05/07 12:57:53;;;;;;;7.20;6.50;;;;;;;32.67;26.45;100712.91;5078190;28;20047;-82
2023/05/07 13:00:49;;;;;;;9.13;6.28;;;;;;;33.91;24.45;100716.56;5067824;28;20052;-83
2023/05/07 13:03:42;;;;;;;8.50;5.32;;;;;;;34.35;24.40;100714.03;5066486;28;20044;-83
2023/05/07 13:06:34;;;;;;;19.63;5.47;;;;;;;33.87;24.88;100707.50;5064137;28;20044;-83
2023/05/07 13:09:29;;;;;;;9.43;4.28;;;;;;;32.32;26.51;100697.47;5080680;28;20047;-85
2023/05/07 13:12:21;;;;;;;8.80;5.72;;;;;;;31.51;28.32;100693.00;5067821;28;20888;-85
2023/05/07 13:15:15;;;;;;;5.95;5.03;;;;;;;31.60;28.40;100693.88;5072126;28;20044;-82
2023/05/07 13:18:10;;;;;;;7.07;6.38;;;;;;;30.74;28.61;100683.34;5075587;28;20047;-84
2023/05/07 13:21:06;;;;;;;8.90;6.93;;;;;;;31.09;28.52;100681.34;5070755;28;20056;-83
2023/05/07 13:23:58;;;;;;;10.40;7.30;;;;;;;31.64;27.56;100674.84;5082377;28;20039;-83